sensor_id;sensor_type;location;lat;lon;timestamp;P1;durP1;ratioP1;P2;durP2;ratioP2
6689;SDS011;3382;51.576;8.076;2023-02-20T00:01:22;21.23;;;14.63;;
6689;SDS011;3382;51.576;8.076;2023-02-20T00:03:49;22.60;;;17.37;;
6689;SDS011;3382;51.576;8.076;2023-02-20T00:06:14;22.20;;;16.83;;
6689;SDS011;3382;51.576;8.076;2023-02-20T00:08:40;21.80;;;15.87;;
6689;SDS011;3382;51.576;8.076;2023-02-20T00:11:06;24.20;;;17.73;;
6689;SDS011;3382;51.576;8.076;2023-02-20T00:13:31;23.73;;;16.87;;
6689;SDS011;3382;51.576;8.076;2023-02-20T00:15:57;19.80;;;14.83;;
6689;SDS011;3382;51.576;8.076;2023-02-20T00:18:22;19.10;;;14.03;;
6689;SDS011;3382;51.576;8.076;2023-02-20T00:20:48;17.60;;;13.17;;
6689;SDS011;3382;51.576;8.076;2023-02-20T00:23:13;15.53;;;11.80;;
6689;SDS011;3382;51.576;8.076;2023-02-20T00:25:39;14.27;;;11.10;;
6689;SDS011;3382;51.576;8.076;2023-02-20T00:28:05;13.43;;;10.40;;
6689;SDS011;3382;51.576;8.076;2023-02-20T00:30:30;12.67;;;9.47;;
6689;SDS011;3382;51.576;8.076;2023-02-20T00:32:56;11.20;;;8.37;;
6689;SDS011;3382;51.576;8.076;2023-02-20T00:35:23;9.50;;;7.03;;
6689;SDS011;3382;51.576;8.076;2023-02-20T00:37:49;11.50;;;7.30;;
6689;SDS011;3382;51.576;8.076;2023-02-20T00:40:17;8.63;;;7.43;;
6689;SDS011;3382;51.576;8.076;2023-02-20T00:42:43;10.17;;;7.43;;
6689;SDS011;3382;51.576;8.076;2023-02-20T00:45:10;9.60;;;7.57;;
6689;SDS011;3382;51.576;8.076;2023-02-20T00:47:36;7.57;;;6.60;;
6689;SDS011;3382;51.576;8.076;2023-02-20T00:50:02;8.13;;;6.53;;
6689;SDS011;3382;51.576;8.076;2023-02-20T00:52:29;8.03;;;6.73;;
6689;SDS011;3382;51.576;8.076;2023-02-20T00:54:54;8.50;;;5.93;;
6689;SDS011;3382;51.576;8.076;2023-02-20T00:57:20;7.27;;;5.77;;
6689;SDS011;3382;51.576;8.076;2023-02-20T00:59:45;6.03;;;5.33;;
6689;SDS011;3382;51.576;8.076;2023-02-20T01:02:11;6.20;;;5.03;;
6689;SDS011;3382;51.576;8.076;2023-02-20T01:04:37;5.47;;;4.93;;
6689;SDS011;3382;51.576;8.076;2023-02-20T01:07:02;4.87;;;4.20;;
6689;SDS011;3382;51.576;8.076;2023-02-20T01:09:28;5.10;;;4.10;;
6689;SDS011;3382;51.576;8.076;2023-02-20T01:11:53;5.20;;;4.23;;
6689;SDS011;3382;51.576;8.076;2023-02-20T01:14:19;4.40;;;4.00;;
6689;SDS011;3382;51.576;8.076;2023-02-20T01:16:47;4.73;;;3.83;;
6689;SDS011;3382;51.576;8.076;2023-02-20T01:19:15;5.30;;;3.93;;
6689;SDS011;3382;51.576;8.076;2023-02-20T01:21:41;4.30;;;3.90;;
6689;SDS011;3382;51.576;8.076;2023-02-20T01:24:07;5.77;;;4.20;;
6689;SDS011;3382;51.576;8.076;2023-02-20T01:26:33;4.83;;;3.90;;
6689;SDS011;3382;51.576;8.076;2023-02-20T01:29:00;5.33;;;4.20;;
6689;SDS011;3382;51.576;8.076;2023-02-20T01:31:26;5.23;;;4.63;;
6689;SDS011;3382;51.576;8.076;2023-02-20T01:33:52;5.60;;;4.27;;
6689;SDS011;3382;51.576;8.076;2023-02-20T01:36:18;6.63;;;5.70;;
6689;SDS011;3382;51.576;8.076;2023-02-20T01:38:44;9.37;;;5.23;;
6689;SDS011;3382;51.576;8.076;2023-02-20T01:41:12;7.07;;;5.13;;
6689;SDS011;3382;51.576;8.076;2023-02-20T01:43:39;7.73;;;5.53;;
6689;SDS011;3382;51.576;8.076;2023-02-20T01:48:49;7.13;;;6.27;;
6689;SDS011;3382;51.576;8.076;2023-02-20T01:51:15;9.27;;;6.40;;
6689;SDS011;3382;51.576;8.076;2023-02-20T01:53:41;9.23;;;6.57;;
6689;SDS011;3382;51.576;8.076;2023-02-20T01:56:07;9.77;;;7.30;;
6689;SDS011;3382;51.576;8.076;2023-02-20T01:58:38;9.60;;;7.13;;
6689;SDS011;3382;51.576;8.076;2023-02-20T02:01:07;9.97;;;7.50;;
6689;SDS011;3382;51.576;8.076;2023-02-20T02:03:34;12.03;;;8.20;;
6689;SDS011;3382;51.576;8.076;2023-02-20T02:06:04;12.23;;;7.97;;
6689;SDS011;3382;51.576;8.076;2023-02-20T02:08:32;14.23;;;8.50;;
6689;SDS011;3382;51.576;8.076;2023-02-20T02:13:52;15.53;;;10.23;;
6689;SDS011;3382;51.576;8.076;2023-02-20T02:36:43;15.00;;;9.70;;
6689;SDS011;3382;51.576;8.076;2023-02-20T02:52:22;14.93;;;10.00;;
6689;SDS011;3382;51.576;8.076;2023-02-20T02:55:05;12.17;;;8.87;;
6689;SDS011;3382;51.576;8.076;2023-02-20T02:57:32;14.17;;;10.03;;
6689;SDS011;3382;51.576;8.076;2023-02-20T03:00:05;16.33;;;10.33;;
6689;SDS011;3382;51.576;8.076;2023-02-20T03:02:35;13.53;;;9.73;;
6689;SDS011;3382;51.576;8.076;2023-02-20T03:05:14;13.80;;;9.60;;
6689;SDS011;3382;51.576;8.076;2023-02-20T03:07:44;14.00;;;9.20;;
6689;SDS011;3382;51.576;8.076;2023-02-20T03:10:13;13.17;;;10.40;;
6689;SDS011;3382;51.576;8.076;2023-02-20T03:12:44;12.77;;;9.17;;
6689;SDS011;3382;51.576;8.076;2023-02-20T03:15:48;11.50;;;8.90;;
6689;SDS011;3382;51.576;8.076;2023-02-20T03:20:45;15.00;;;10.33;;
6689;SDS011;3382;51.576;8.076;2023-02-20T03:23:16;15.53;;;10.03;;
6689;SDS011;3382;51.576;8.076;2023-02-20T03:25:47;14.07;;;9.73;;
6689;SDS011;3382;51.576;8.076;2023-02-20T03:28:19;12.93;;;8.70;;
6689;SDS011;3382;51.576;8.076;2023-02-20T03:30:56;14.00;;;10.00;;
6689;SDS011;3382;51.576;8.076;2023-02-20T03:33:29;14.13;;;8.90;;
6689;SDS011;3382;51.576;8.076;2023-02-20T03:36:26;15.37;;;9.40;;
6689;SDS011;3382;51.576;8.076;2023-02-20T03:39:22;19.37;;;9.70;;
6689;SDS011;3382;51.576;8.076;2023-02-20T03:42:14;15.33;;;9.17;;
6689;SDS011;3382;51.576;8.076;2023-02-20T03:45:00;14.10;;;9.40;;
6689;SDS011;3382;51.576;8.076;2023-02-20T03:47:29;15.43;;;10.17;;
6689;SDS011;3382;51.576;8.076;2023-02-20T03:49:57;13.33;;;9.00;;
6689;SDS011;3382;51.576;8.076;2023-02-20T03:52:25;13.93;;;9.63;;
6689;SDS011;3382;51.576;8.076;2023-02-20T03:54:51;14.90;;;9.73;;
6689;SDS011;3382;51.576;8.076;2023-02-20T03:57:20;13.33;;;9.27;;
6689;SDS011;3382;51.576;8.076;2023-02-20T03:59:57;15.83;;;9.40;;
6689;SDS011;3382;51.576;8.076;2023-02-20T04:02:30;15.23;;;9.57;;
6689;SDS011;3382;51.576;8.076;2023-02-20T04:05:03;12.70;;;9.13;;
6689;SDS011;3382;51.576;8.076;2023-02-20T04:07:36;13.00;;;9.70;;
6689;SDS011;3382;51.576;8.076;2023-02-20T04:10:08;11.97;;;8.63;;
6689;SDS011;3382;51.576;8.076;2023-02-20T04:12:39;12.47;;;8.83;;
6689;SDS011;3382;51.576;8.076;2023-02-20T04:15:08;14.27;;;9.67;;
6689;SDS011;3382;51.576;8.076;2023-02-20T04:17:45;17.20;;;9.43;;
6689;SDS011;3382;51.576;8.076;2023-02-20T04:20:14;14.97;;;8.80;;
6689;SDS011;3382;51.576;8.076;2023-02-20T04:22:41;14.23;;;8.00;;
6689;SDS011;3382;51.576;8.076;2023-02-20T04:27:54;13.70;;;8.60;;
6689;SDS011;3382;51.576;8.076;2023-02-20T04:30:20;16.80;;;8.87;;
6689;SDS011;3382;51.576;8.076;2023-02-20T04:32:46;14.70;;;8.40;;
6689;SDS011;3382;51.576;8.076;2023-02-20T04:35:16;13.13;;;8.77;;
6689;SDS011;3382;51.576;8.076;2023-02-20T04:37:44;12.53;;;7.70;;
6689;SDS011;3382;51.576;8.076;2023-02-20T04:40:10;13.03;;;7.97;;
6689;SDS011;3382;51.576;8.076;2023-02-20T04:42:37;13.33;;;7.60;;
6689;SDS011;3382;51.576;8.076;2023-02-20T04:45:02;10.43;;;7.10;;
6689;SDS011;3382;51.576;8.076;2023-02-20T04:47:28;9.80;;;6.93;;
6689;SDS011;3382;51.576;8.076;2023-02-20T04:49:54;11.97;;;5.83;;
6689;SDS011;3382;51.576;8.076;2023-02-20T04:52:20;8.27;;;6.23;;
6689;SDS011;3382;51.576;8.076;2023-02-20T04:54:45;10.53;;;6.17;;
6689;SDS011;3382;51.576;8.076;2023-02-20T04:57:12;9.57;;;6.20;;
6689;SDS011;3382;51.576;8.076;2023-02-20T04:59:38;8.27;;;5.53;;
6689;SDS011;3382;51.576;8.076;2023-02-20T05:02:03;12.63;;;6.60;;
6689;SDS011;3382;51.576;8.076;2023-02-20T05:04:29;12.23;;;6.90;;
6689;SDS011;3382;51.576;8.076;2023-02-20T05:06:55;9.47;;;6.57;;
6689;SDS011;3382;51.576;8.076;2023-02-20T05:09:21;11.23;;;6.60;;
6689;SDS011;3382;51.576;8.076;2023-02-20T05:11:48;8.47;;;5.47;;
6689;SDS011;3382;51.576;8.076;2023-02-20T05:14:13;9.27;;;5.63;;
6689;SDS011;3382;51.576;8.076;2023-02-20T05:16:40;5.57;;;4.07;;
6689;SDS011;3382;51.576;8.076;2023-02-20T05:19:06;9.13;;;5.07;;
6689;SDS011;3382;51.576;8.076;2023-02-20T05:21:33;7.67;;;5.17;;
6689;SDS011;3382;51.576;8.076;2023-02-20T05:24:17;8.80;;;5.33;;
6689;SDS011;3382;51.576;8.076;2023-02-20T05:26:44;9.00;;;4.63;;
6689;SDS011;3382;51.576;8.076;2023-02-20T05:29:09;7.67;;;4.73;;
6689;SDS011;3382;51.576;8.076;2023-02-20T05:31:37;7.50;;;4.67;;
6689;SDS011;3382;51.576;8.076;2023-02-20T05:34:03;7.80;;;4.47;;
6689;SDS011;3382;51.576;8.076;2023-02-20T05:36:29;4.33;;;2.90;;
6689;SDS011;3382;51.576;8.076;2023-02-20T05:38:55;4.20;;;3.47;;
6689;SDS011;3382;51.576;8.076;2023-02-20T05:41:21;7.47;;;4.63;;
6689;SDS011;3382;51.576;8.076;2023-02-20T05:43:47;8.17;;;4.43;;
6689;SDS011;3382;51.576;8.076;2023-02-20T05:46:12;9.03;;;4.10;;
6689;SDS011;3382;51.576;8.076;2023-02-20T05:48:39;6.80;;;4.20;;
6689;SDS011;3382;51.576;8.076;2023-02-20T05:51:05;14.23;;;4.57;;
6689;SDS011;3382;51.576;8.076;2023-02-20T05:53:30;7.87;;;3.93;;
6689;SDS011;3382;51.576;8.076;2023-02-20T05:55:57;6.83;;;4.27;;
6689;SDS011;3382;51.576;8.076;2023-02-20T05:58:23;8.77;;;4.23;;
6689;SDS011;3382;51.576;8.076;2023-02-20T06:00:49;8.10;;;4.23;;
6689;SDS011;3382;51.576;8.076;2023-02-20T06:03:15;7.13;;;4.30;;
6689;SDS011;3382;51.576;8.076;2023-02-20T06:05:41;7.20;;;4.27;;
6689;SDS011;3382;51.576;8.076;2023-02-20T06:08:07;7.43;;;2.97;;
6689;SDS011;3382;51.576;8.076;2023-02-20T06:10:33;5.37;;;3.57;;
6689;SDS011;3382;51.576;8.076;2023-02-20T06:12:59;8.23;;;3.67;;
6689;SDS011;3382;51.576;8.076;2023-02-20T06:15:25;5.63;;;3.57;;
6689;SDS011;3382;51.576;8.076;2023-02-20T06:17:51;7.13;;;3.47;;
6689;SDS011;3382;51.576;8.076;2023-02-20T06:20:17;10.43;;;4.10;;
6689;SDS011;3382;51.576;8.076;2023-02-20T06:22:45;8.03;;;4.10;;
6689;SDS011;3382;51.576;8.076;2023-02-20T06:25:12;7.00;;;3.40;;
6689;SDS011;3382;51.576;8.076;2023-02-20T06:27:37;6.03;;;3.43;;
6689;SDS011;3382;51.576;8.076;2023-02-20T06:30:04;6.97;;;3.80;;
6689;SDS011;3382;51.576;8.076;2023-02-20T06:32:29;5.87;;;3.73;;
6689;SDS011;3382;51.576;8.076;2023-02-20T06:34:55;5.10;;;3.17;;
6689;SDS011;3382;51.576;8.076;2023-02-20T06:37:21;8.37;;;3.80;;
6689;SDS011;3382;51.576;8.076;2023-02-20T06:39:46;6.90;;;3.67;;
6689;SDS011;3382;51.576;8.076;2023-02-20T06:42:13;6.93;;;3.33;;
6689;SDS011;3382;51.576;8.076;2023-02-20T06:44:39;6.40;;;3.90;;
6689;SDS011;3382;51.576;8.076;2023-02-20T06:47:05;7.23;;;3.67;;
6689;SDS011;3382;51.576;8.076;2023-02-20T06:49:36;6.43;;;3.80;;
6689;SDS011;3382;51.576;8.076;2023-02-20T06:52:05;7.07;;;3.90;;
6689;SDS011;3382;51.576;8.076;2023-02-20T06:54:31;6.53;;;3.07;;
6689;SDS011;3382;51.576;8.076;2023-02-20T06:56:58;8.27;;;4.10;;
6689;SDS011;3382;51.576;8.076;2023-02-20T06:59:24;7.13;;;3.83;;
6689;SDS011;3382;51.576;8.076;2023-02-20T07:01:50;5.93;;;2.83;;
6689;SDS011;3382;51.576;8.076;2023-02-20T07:04:17;8.93;;;2.77;;
6689;SDS011;3382;51.576;8.076;2023-02-20T07:06:44;5.60;;;3.00;;
6689;SDS011;3382;51.576;8.076;2023-02-20T07:09:09;4.73;;;2.83;;
6689;SDS011;3382;51.576;8.076;2023-02-20T07:11:35;5.60;;;1.87;;
6689;SDS011;3382;51.576;8.076;2023-02-20T07:14:00;5.17;;;1.60;;
6689;SDS011;3382;51.576;8.076;2023-02-20T07:16:26;3.27;;;1.70;;
6689;SDS011;3382;51.576;8.076;2023-02-20T07:18:52;1.00;;;0.83;;
6689;SDS011;3382;51.576;8.076;2023-02-20T07:21:18;2.60;;;1.00;;
6689;SDS011;3382;51.576;8.076;2023-02-20T07:23:43;2.40;;;1.43;;
6689;SDS011;3382;51.576;8.076;2023-02-20T07:26:19;4.63;;;1.80;;
6689;SDS011;3382;51.576;8.076;2023-02-20T07:28:46;3.33;;;1.40;;
6689;SDS011;3382;51.576;8.076;2023-02-20T07:31:12;5.43;;;2.10;;
6689;SDS011;3382;51.576;8.076;2023-02-20T07:33:38;2.60;;;1.70;;
6689;SDS011;3382;51.576;8.076;2023-02-20T07:36:04;4.37;;;2.33;;
6689;SDS011;3382;51.576;8.076;2023-02-20T07:38:30;3.17;;;1.83;;
6689;SDS011;3382;51.576;8.076;2023-02-20T07:40:55;4.70;;;2.00;;
6689;SDS011;3382;51.576;8.076;2023-02-20T07:43:21;3.87;;;1.60;;
6689;SDS011;3382;51.576;8.076;2023-02-20T07:45:46;5.73;;;1.57;;
6689;SDS011;3382;51.576;8.076;2023-02-20T07:48:12;5.73;;;2.10;;
6689;SDS011;3382;51.576;8.076;2023-02-20T07:50:38;3.43;;;1.40;;
6689;SDS011;3382;51.576;8.076;2023-02-20T07:53:03;2.90;;;1.63;;
6689;SDS011;3382;51.576;8.076;2023-02-20T07:55:29;2.57;;;1.60;;
6689;SDS011;3382;51.576;8.076;2023-02-20T07:57:54;1.70;;;1.60;;
6689;SDS011;3382;51.576;8.076;2023-02-20T08:00:22;4.10;;;2.10;;
6689;SDS011;3382;51.576;8.076;2023-02-20T08:02:49;4.87;;;1.63;;
6689;SDS011;3382;51.576;8.076;2023-02-20T08:05:15;2.13;;;1.50;;
6689;SDS011;3382;51.576;8.076;2023-02-20T08:07:47;2.50;;;1.30;;
6689;SDS011;3382;51.576;8.076;2023-02-20T08:10:14;2.20;;;1.17;;
6689;SDS011;3382;51.576;8.076;2023-02-20T08:12:42;4.80;;;1.90;;
6689;SDS011;3382;51.576;8.076;2023-02-20T08:15:08;3.03;;;1.80;;
6689;SDS011;3382;51.576;8.076;2023-02-20T08:17:36;4.20;;;1.63;;
6689;SDS011;3382;51.576;8.076;2023-02-20T08:20:05;3.57;;;2.13;;
6689;SDS011;3382;51.576;8.076;2023-02-20T08:22:32;2.87;;;1.67;;
6689;SDS011;3382;51.576;8.076;2023-02-20T08:24:58;1.80;;;1.43;;
6689;SDS011;3382;51.576;8.076;2023-02-20T08:27:24;3.10;;;1.73;;
6689;SDS011;3382;51.576;8.076;2023-02-20T08:29:51;4.50;;;1.90;;
6689;SDS011;3382;51.576;8.076;2023-02-20T08:32:17;5.27;;;1.80;;
6689;SDS011;3382;51.576;8.076;2023-02-20T08:34:43;2.20;;;1.70;;
6689;SDS011;3382;51.576;8.076;2023-02-20T08:37:09;2.33;;;1.43;;
6689;SDS011;3382;51.576;8.076;2023-02-20T08:39:35;4.77;;;2.40;;
6689;SDS011;3382;51.576;8.076;2023-02-20T08:42:01;2.33;;;1.80;;
6689;SDS011;3382;51.576;8.076;2023-02-20T08:44:27;4.47;;;1.80;;
6689;SDS011;3382;51.576;8.076;2023-02-20T08:46:52;2.03;;;1.60;;
6689;SDS011;3382;51.576;8.076;2023-02-20T08:49:18;4.73;;;1.87;;
6689;SDS011;3382;51.576;8.076;2023-02-20T08:51:45;4.63;;;2.03;;
6689;SDS011;3382;51.576;8.076;2023-02-20T08:54:11;4.67;;;1.50;;
6689;SDS011;3382;51.576;8.076;2023-02-20T08:56:37;2.40;;;1.40;;
6689;SDS011;3382;51.576;8.076;2023-02-20T08:59:03;3.30;;;2.00;;
6689;SDS011;3382;51.576;8.076;2023-02-20T09:01:29;1.87;;;1.30;;
6689;SDS011;3382;51.576;8.076;2023-02-20T09:03:54;1.60;;;1.50;;
6689;SDS011;3382;51.576;8.076;2023-02-20T09:06:20;2.17;;;1.53;;
6689;SDS011;3382;51.576;8.076;2023-02-20T09:08:49;7.53;;;2.93;;
6689;SDS011;3382;51.576;8.076;2023-02-20T09:11:18;4.70;;;2.00;;
6689;SDS011;3382;51.576;8.076;2023-02-20T09:13:45;2.87;;;1.47;;
6689;SDS011;3382;51.576;8.076;2023-02-20T09:16:16;2.67;;;1.40;;
6689;SDS011;3382;51.576;8.076;2023-02-20T09:18:44;3.97;;;1.90;;
6689;SDS011;3382;51.576;8.076;2023-02-20T09:21:10;4.97;;;2.00;;
6689;SDS011;3382;51.576;8.076;2023-02-20T09:23:37;3.60;;;2.07;;
6689;SDS011;3382;51.576;8.076;2023-02-20T09:26:03;2.93;;;2.10;;
6689;SDS011;3382;51.576;8.076;2023-02-20T09:28:29;1.93;;;1.57;;
6689;SDS011;3382;51.576;8.076;2023-02-20T09:30:55;2.50;;;1.83;;
6689;SDS011;3382;51.576;8.076;2023-02-20T09:33:21;2.80;;;2.10;;
6689;SDS011;3382;51.576;8.076;2023-02-20T09:35:48;4.50;;;2.30;;
6689;SDS011;3382;51.576;8.076;2023-02-20T09:38:16;3.97;;;1.90;;
6689;SDS011;3382;51.576;8.076;2023-02-20T09:40:42;15.17;;;2.20;;
6689;SDS011;3382;51.576;8.076;2023-02-20T09:43:19;2.50;;;1.80;;
6689;SDS011;3382;51.576;8.076;2023-02-20T09:46:14;2.10;;;1.67;;
6689;SDS011;3382;51.576;8.076;2023-02-20T09:48:46;2.47;;;1.40;;
6689;SDS011;3382;51.576;8.076;2023-02-20T09:51:20;3.07;;;2.13;;
6689;SDS011;3382;51.576;8.076;2023-02-20T09:56:33;2.00;;;1.77;;
6689;SDS011;3382;51.576;8.076;2023-02-20T09:59:06;3.47;;;2.23;;
6689;SDS011;3382;51.576;8.076;2023-02-20T10:01:41;5.83;;;2.20;;
6689;SDS011;3382;51.576;8.076;2023-02-20T10:04:17;3.87;;;1.93;;
6689;SDS011;3382;51.576;8.076;2023-02-20T10:06:49;3.43;;;1.83;;
6689;SDS011;3382;51.576;8.076;2023-02-20T10:09:17;1.90;;;1.77;;
6689;SDS011;3382;51.576;8.076;2023-02-20T10:17:33;5.13;;;1.73;;
6689;SDS011;3382;51.576;8.076;2023-02-20T10:20:10;1.83;;;1.67;;
6689;SDS011;3382;51.576;8.076;2023-02-20T10:25:30;2.57;;;1.70;;
6689;SDS011;3382;51.576;8.076;2023-02-20T10:30:31;3.67;;;1.83;;
6689;SDS011;3382;51.576;8.076;2023-02-20T10:35:35;2.37;;;1.73;;
6689;SDS011;3382;51.576;8.076;2023-02-20T10:38:07;4.10;;;2.60;;
6689;SDS011;3382;51.576;8.076;2023-02-20T10:43:09;5.93;;;2.03;;
6689;SDS011;3382;51.576;8.076;2023-02-20T10:46:08;2.67;;;1.63;;
6689;SDS011;3382;51.576;8.076;2023-02-20T10:48:42;5.73;;;2.80;;
6689;SDS011;3382;51.576;8.076;2023-02-20T10:56:36;2.93;;;2.13;;
6689;SDS011;3382;51.576;8.076;2023-02-20T11:01:45;2.60;;;1.73;;
6689;SDS011;3382;51.576;8.076;2023-02-20T11:04:15;3.43;;;2.10;;
6689;SDS011;3382;51.576;8.076;2023-02-20T11:06:48;3.07;;;1.60;;
6689;SDS011;3382;51.576;8.076;2023-02-20T11:09:35;3.07;;;2.13;;
6689;SDS011;3382;51.576;8.076;2023-02-20T11:12:01;2.87;;;2.13;;
6689;SDS011;3382;51.576;8.076;2023-02-20T11:14:33;1.90;;;1.53;;
6689;SDS011;3382;51.576;8.076;2023-02-20T11:22:10;1.40;;;1.30;;
6689;SDS011;3382;51.576;8.076;2023-02-20T11:24:37;2.63;;;1.60;;
6689;SDS011;3382;51.576;8.076;2023-02-20T11:27:14;1.83;;;1.73;;
6689;SDS011;3382;51.576;8.076;2023-02-20T11:29:59;3.07;;;1.50;;
6689;SDS011;3382;51.576;8.076;2023-02-20T11:32:40;3.27;;;1.67;;
6689;SDS011;3382;51.576;8.076;2023-02-20T11:37:41;3.47;;;2.20;;
6689;SDS011;3382;51.576;8.076;2023-02-20T11:42:49;1.53;;;1.43;;
6689;SDS011;3382;51.576;8.076;2023-02-20T11:45:15;2.83;;;2.00;;
6689;SDS011;3382;51.576;8.076;2023-02-20T11:47:52;3.73;;;1.50;;
6689;SDS011;3382;51.576;8.076;2023-02-20T11:56:30;2.03;;;1.30;;
6689;SDS011;3382;51.576;8.076;2023-02-20T11:58:49;2.67;;;1.87;;
6689;SDS011;3382;51.576;8.076;2023-02-20T12:01:31;2.07;;;1.50;;
6689;SDS011;3382;51.576;8.076;2023-02-20T12:03:58;2.40;;;1.73;;
6689;SDS011;3382;51.576;8.076;2023-02-20T12:09:01;2.93;;;2.10;;
6689;SDS011;3382;51.576;8.076;2023-02-20T12:11:28;5.50;;;3.90;;
6689;SDS011;3382;51.576;8.076;2023-02-20T12:13:56;3.37;;;1.90;;
6689;SDS011;3382;51.576;8.076;2023-02-20T12:26:52;2.87;;;1.97;;
6689;SDS011;3382;51.576;8.076;2023-02-20T12:59:30;2.43;;;1.57;;
6689;SDS011;3382;51.576;8.076;2023-02-20T13:02:12;6.27;;;4.07;;
6689;SDS011;3382;51.576;8.076;2023-02-20T13:04:53;4.10;;;3.37;;
6689;SDS011;3382;51.576;8.076;2023-02-20T13:07:27;1.73;;;1.60;;
6689;SDS011;3382;51.576;8.076;2023-02-20T13:10:05;4.93;;;3.63;;
6689;SDS011;3382;51.576;8.076;2023-02-20T13:12:38;2.83;;;1.80;;
6689;SDS011;3382;51.576;8.076;2023-02-20T13:17:52;9.47;;;6.50;;
6689;SDS011;3382;51.576;8.076;2023-02-20T13:20:32;3.87;;;3.03;;
6689;SDS011;3382;51.576;8.076;2023-02-20T13:25:44;6.07;;;2.90;;
6689;SDS011;3382;51.576;8.076;2023-02-20T13:30:36;3.00;;;2.00;;
6689;SDS011;3382;51.576;8.076;2023-02-20T13:33:12;4.20;;;2.30;;
6689;SDS011;3382;51.576;8.076;2023-02-20T13:38:16;2.60;;;2.13;;
6689;SDS011;3382;51.576;8.076;2023-02-20T13:40:44;2.90;;;1.97;;
6689;SDS011;3382;51.576;8.076;2023-02-20T13:53:49;5.00;;;2.90;;
6689;SDS011;3382;51.576;8.076;2023-02-20T13:56:18;4.17;;;3.77;;
6689;SDS011;3382;51.576;8.076;2023-02-20T13:58:53;3.47;;;2.67;;
6689;SDS011;3382;51.576;8.076;2023-02-20T14:01:20;2.17;;;1.70;;
6689;SDS011;3382;51.576;8.076;2023-02-20T14:03:53;3.53;;;3.23;;
6689;SDS011;3382;51.576;8.076;2023-02-20T14:06:27;2.60;;;1.63;;
6689;SDS011;3382;51.576;8.076;2023-02-20T14:09:06;2.10;;;1.70;;
6689;SDS011;3382;51.576;8.076;2023-02-20T14:11:40;2.97;;;2.30;;
6689;SDS011;3382;51.576;8.076;2023-02-20T14:14:07;1.83;;;1.50;;
6689;SDS011;3382;51.576;8.076;2023-02-20T14:16:36;6.50;;;5.60;;
6689;SDS011;3382;51.576;8.076;2023-02-20T14:19:06;5.43;;;4.07;;
6689;SDS011;3382;51.576;8.076;2023-02-20T14:21:47;2.93;;;2.30;;
6689;SDS011;3382;51.576;8.076;2023-02-20T14:26:49;2.97;;;2.30;;
6689;SDS011;3382;51.576;8.076;2023-02-20T14:31:45;5.80;;;4.43;;
6689;SDS011;3382;51.576;8.076;2023-02-20T14:34:16;7.07;;;6.07;;
6689;SDS011;3382;51.576;8.076;2023-02-20T14:39:58;2.30;;;1.40;;
6689;SDS011;3382;51.576;8.076;2023-02-20T14:42:33;4.87;;;4.03;;
6689;SDS011;3382;51.576;8.076;2023-02-20T14:45:04;3.17;;;2.63;;
6689;SDS011;3382;51.576;8.076;2023-02-20T14:47:31;4.57;;;4.07;;
6689;SDS011;3382;51.576;8.076;2023-02-20T14:50:15;3.53;;;3.23;;
6689;SDS011;3382;51.576;8.076;2023-02-20T14:52:43;6.77;;;5.03;;
6689;SDS011;3382;51.576;8.076;2023-02-20T14:55:13;4.67;;;2.57;;
6689;SDS011;3382;51.576;8.076;2023-02-20T14:57:40;1.90;;;1.70;;
6689;SDS011;3382;51.576;8.076;2023-02-20T15:00:07;2.80;;;2.20;;
6689;SDS011;3382;51.576;8.076;2023-02-20T15:02:34;2.57;;;1.90;;
6689;SDS011;3382;51.576;8.076;2023-02-20T15:05:04;3.50;;;2.73;;
6689;SDS011;3382;51.576;8.076;2023-02-20T15:07:31;4.37;;;2.37;;
6689;SDS011;3382;51.576;8.076;2023-02-20T15:09:59;2.23;;;2.07;;
6689;SDS011;3382;51.576;8.076;2023-02-20T15:12:32;6.57;;;3.90;;
6689;SDS011;3382;51.576;8.076;2023-02-20T15:15:02;5.97;;;3.50;;
6689;SDS011;3382;51.576;8.076;2023-02-20T15:17:31;5.00;;;3.77;;
6689;SDS011;3382;51.576;8.076;2023-02-20T15:19:59;7.50;;;3.33;;
6689;SDS011;3382;51.576;8.076;2023-02-20T15:24:52;3.80;;;3.10;;
6689;SDS011;3382;51.576;8.076;2023-02-20T15:27:18;6.33;;;4.50;;
6689;SDS011;3382;51.576;8.076;2023-02-20T15:32:35;8.93;;;6.83;;
6689;SDS011;3382;51.576;8.076;2023-02-20T15:35:03;6.73;;;3.57;;
6689;SDS011;3382;51.576;8.076;2023-02-20T15:37:29;9.07;;;5.93;;
6689;SDS011;3382;51.576;8.076;2023-02-20T15:40:04;6.57;;;3.63;;
6689;SDS011;3382;51.576;8.076;2023-02-20T15:42:33;10.33;;;7.13;;
6689;SDS011;3382;51.576;8.076;2023-02-20T15:44:59;5.23;;;3.20;;
6689;SDS011;3382;51.576;8.076;2023-02-20T15:47:24;7.83;;;4.97;;
6689;SDS011;3382;51.576;8.076;2023-02-20T15:49:50;6.63;;;3.53;;
6689;SDS011;3382;51.576;8.076;2023-02-20T15:52:17;7.93;;;6.27;;
6689;SDS011;3382;51.576;8.076;2023-02-20T15:54:45;3.87;;;2.67;;
6689;SDS011;3382;51.576;8.076;2023-02-20T15:57:16;5.43;;;3.03;;
6689;SDS011;3382;51.576;8.076;2023-02-20T15:59:42;9.33;;;6.73;;
6689;SDS011;3382;51.576;8.076;2023-02-20T16:02:11;11.20;;;6.63;;
6689;SDS011;3382;51.576;8.076;2023-02-20T16:04:38;6.80;;;2.57;;
6689;SDS011;3382;51.576;8.076;2023-02-20T16:07:04;5.07;;;2.23;;
6689;SDS011;3382;51.576;8.076;2023-02-20T16:09:30;9.47;;;4.30;;
6689;SDS011;3382;51.576;8.076;2023-02-20T16:11:55;9.10;;;6.77;;
6689;SDS011;3382;51.576;8.076;2023-02-20T16:14:22;11.17;;;6.67;;
6689;SDS011;3382;51.576;8.076;2023-02-20T16:16:49;9.17;;;6.67;;
6689;SDS011;3382;51.576;8.076;2023-02-20T16:19:18;8.03;;;5.07;;
6689;SDS011;3382;51.576;8.076;2023-02-20T16:21:45;11.47;;;3.73;;
6689;SDS011;3382;51.576;8.076;2023-02-20T16:24:11;11.87;;;5.30;;
6689;SDS011;3382;51.576;8.076;2023-02-20T16:26:38;7.40;;;3.13;;
6689;SDS011;3382;51.576;8.076;2023-02-20T16:29:07;12.43;;;3.40;;
6689;SDS011;3382;51.576;8.076;2023-02-20T16:34:29;8.53;;;6.17;;
6689;SDS011;3382;51.576;8.076;2023-02-20T16:36:56;11.63;;;3.30;;
6689;SDS011;3382;51.576;8.076;2023-02-20T16:39:22;16.07;;;3.60;;
6689;SDS011;3382;51.576;8.076;2023-02-20T16:41:47;8.50;;;5.93;;
6689;SDS011;3382;51.576;8.076;2023-02-20T16:44:14;8.07;;;3.80;;
6689;SDS011;3382;51.576;8.076;2023-02-20T16:46:47;11.47;;;6.73;;
6689;SDS011;3382;51.576;8.076;2023-02-20T16:49:12;13.50;;;9.97;;
6689;SDS011;3382;51.576;8.076;2023-02-20T16:51:40;9.93;;;2.97;;
6689;SDS011;3382;51.576;8.076;2023-02-20T16:54:12;12.80;;;4.53;;
6689;SDS011;3382;51.576;8.076;2023-02-20T16:56:41;7.20;;;3.03;;
6689;SDS011;3382;51.576;8.076;2023-02-20T16:59:07;15.47;;;9.67;;
6689;SDS011;3382;51.576;8.076;2023-02-20T17:01:34;14.77;;;11.23;;
6689;SDS011;3382;51.576;8.076;2023-02-20T17:04:00;9.80;;;6.10;;
6689;SDS011;3382;51.576;8.076;2023-02-20T17:06:25;9.07;;;3.47;;
6689;SDS011;3382;51.576;8.076;2023-02-20T17:08:54;14.50;;;10.57;;
6689;SDS011;3382;51.576;8.076;2023-02-20T17:11:20;14.63;;;10.10;;
6689;SDS011;3382;51.576;8.076;2023-02-20T17:13:46;9.93;;;5.53;;
6689;SDS011;3382;51.576;8.076;2023-02-20T17:16:11;13.27;;;9.37;;
6689;SDS011;3382;51.576;8.076;2023-02-20T17:18:37;17.00;;;11.63;;
6689;SDS011;3382;51.576;8.076;2023-02-20T17:21:03;14.13;;;11.10;;
6689;SDS011;3382;51.576;8.076;2023-02-20T17:23:29;13.03;;;10.17;;
6689;SDS011;3382;51.576;8.076;2023-02-20T17:25:54;14.87;;;11.90;;
6689;SDS011;3382;51.576;8.076;2023-02-20T17:28:20;20.17;;;11.20;;
6689;SDS011;3382;51.576;8.076;2023-02-20T17:30:45;16.43;;;10.33;;
6689;SDS011;3382;51.576;8.076;2023-02-20T17:33:16;11.83;;;7.73;;
6689;SDS011;3382;51.576;8.076;2023-02-20T17:35:42;16.77;;;11.87;;
6689;SDS011;3382;51.576;8.076;2023-02-20T17:38:09;15.77;;;10.97;;
6689;SDS011;3382;51.576;8.076;2023-02-20T17:40:35;20.23;;;12.30;;
6689;SDS011;3382;51.576;8.076;2023-02-20T17:43:02;17.53;;;12.87;;
6689;SDS011;3382;51.576;8.076;2023-02-20T17:45:27;20.17;;;13.03;;
6689;SDS011;3382;51.576;8.076;2023-02-20T17:47:53;17.80;;;12.87;;
6689;SDS011;3382;51.576;8.076;2023-02-20T17:50:19;15.63;;;12.17;;
6689;SDS011;3382;51.576;8.076;2023-02-20T17:52:44;22.47;;;12.83;;
6689;SDS011;3382;51.576;8.076;2023-02-20T17:55:15;17.50;;;12.87;;
6689;SDS011;3382;51.576;8.076;2023-02-20T17:57:42;19.57;;;14.13;;
6689;SDS011;3382;51.576;8.076;2023-02-20T18:00:08;18.53;;;12.60;;
6689;SDS011;3382;51.576;8.076;2023-02-20T18:02:34;19.37;;;13.40;;
6689;SDS011;3382;51.576;8.076;2023-02-20T18:04:59;19.77;;;13.53;;
6689;SDS011;3382;51.576;8.076;2023-02-20T18:07:25;23.77;;;13.90;;